sensor_id;sensor_type;location;lat;lon;timestamp;temperature;humidity
26541;DHT22;14206;50.202;10.948;2022-10-16T00:01:50;16.40;96.60
26541;DHT22;14206;50.202;10.948;2022-10-16T00:04:17;16.40;96.60
26541;DHT22;14206;50.202;10.948;2022-10-16T00:09:58;16.30;96.60
26541;DHT22;14206;50.202;10.948;2022-10-16T00:12:31;16.30;96.60
26541;DHT22;14206;50.202;10.948;2022-10-16T00:14:58;16.30;96.60
26541;DHT22;14206;50.202;10.948;2022-10-16T00:17:25;16.30;96.60
26541;DHT22;14206;50.202;10.948;2022-10-16T00:19:52;16.30;96.60
26541;DHT22;14206;50.202;10.948;2022-10-16T00:22:18;16.20;96.60
26541;DHT22;14206;50.202;10.948;2022-10-16T00:24:45;16.20;96.60
26541;DHT22;14206;50.202;10.948;2022-10-16T00:27:16;16.20;96.60
26541;DHT22;14206;50.202;10.948;2022-10-16T00:29:43;16.20;96.60
26541;DHT22;14206;50.202;10.948;2022-10-16T00:32:10;16.20;96.60
26541;DHT22;14206;50.202;10.948;2022-10-16T00:34:37;16.10;96.60
26541;DHT22;14206;50.202;10.948;2022-10-16T00:37:05;16.10;96.60
26541;DHT22;14206;50.202;10.948;2022-10-16T00:39:32;16.00;96.60
26541;DHT22;14206;50.202;10.948;2022-10-16T00:42:05;16.00;96.60
26541;DHT22;14206;50.202;10.948;2022-10-16T00:44:49;16.00;96.60
26541;DHT22;14206;50.202;10.948;2022-10-16T00:50:02;15.90;96.60
26541;DHT22;14206;50.202;10.948;2022-10-16T00:52:32;15.90;96.60
26541;DHT22;14206;50.202;10.948;2022-10-16T00:55:00;15.90;96.60
26541;DHT22;14206;50.202;10.948;2022-10-16T00:57:32;15.90;96.60
26541;DHT22;14206;50.202;10.948;2022-10-16T01:00:00;15.90;96.60
26541;DHT22;14206;50.202;10.948;2022-10-16T01:02:27;15.90;96.60
26541;DHT22;14206;50.202;10.948;2022-10-16T01:04:54;15.90;96.60
26541;DHT22;14206;50.202;10.948;2022-10-16T01:10:18;16.00;96.60
26541;DHT22;14206;50.202;10.948;2022-10-16T01:13:05;16.00;96.60
26541;DHT22;14206;50.202;10.948;2022-10-16T01:18:11;16.10;96.60
26541;DHT22;14206;50.202;10.948;2022-10-16T01:20:53;16.20;96.60
26541;DHT22;14206;50.202;10.948;2022-10-16T01:40:28;16.10;96.60
26541;DHT22;14206;50.202;10.948;2022-10-16T01:43:00;16.10;96.60
26541;DHT22;14206;50.202;10.948;2022-10-16T01:45:29;16.10;96.60
26541;DHT22;14206;50.202;10.948;2022-10-16T01:48:00;16.10;96.60
26541;DHT22;14206;50.202;10.948;2022-10-16T01:50:34;16.10;96.60
26541;DHT22;14206;50.202;10.948;2022-10-16T01:53:03;16.20;96.60
26541;DHT22;14206;50.202;10.948;2022-10-16T01:55:33;16.10;96.60
26541;DHT22;14206;50.202;10.948;2022-10-16T01:58:04;16.10;96.60
26541;DHT22;14206;50.202;10.948;2022-10-16T02:00:32;16.10;96.60
26541;DHT22;14206;50.202;10.948;2022-10-16T02:03:02;16.10;96.60
26541;DHT22;14206;50.202;10.948;2022-10-16T02:08:11;16.10;96.60
26541;DHT22;14206;50.202;10.948;2022-10-16T02:10:39;16.10;96.60
26541;DHT22;14206;50.202;10.948;2022-10-16T02:15:36;16.00;96.60
26541;DHT22;14206;50.202;10.948;2022-10-16T02:18:04;16.00;96.60
26541;DHT22;14206;50.202;10.948;2022-10-16T02:20:45;16.00;96.60
26541;DHT22;14206;50.202;10.948;2022-10-16T02:23:16;16.00;96.60
26541;DHT22;14206;50.202;10.948;2022-10-16T02:25:47;16.00;96.60
26541;DHT22;14206;50.202;10.948;2022-10-16T02:28:19;16.00;96.60
26541;DHT22;14206;50.202;10.948;2022-10-16T02:30:59;16.00;96.60
26541;DHT22;14206;50.202;10.948;2022-10-16T02:33:28;15.90;96.60
26541;DHT22;14206;50.202;10.948;2022-10-16T02:35:56;15.90;96.60
26541;DHT22;14206;50.202;10.948;2022-10-16T02:38:24;15.90;96.60
26541;DHT22;14206;50.202;10.948;2022-10-16T02:40:52;15.90;96.60
26541;DHT22;14206;50.202;10.948;2022-10-16T02:43:19;15.90;96.60
26541;DHT22;14206;50.202;10.948;2022-10-16T02:45:46;15.90;96.60
26541;DHT22;14206;50.202;10.948;2022-10-16T02:48:13;15.90;96.60
26541;DHT22;14206;50.202;10.948;2022-10-16T02:50:41;15.90;96.60
26541;DHT22;14206;50.202;10.948;2022-10-16T02:53:08;15.90;96.60
26541;DHT22;14206;50.202;10.948;2022-10-16T02:55:35;15.90;96.60
26541;DHT22;14206;50.202;10.948;2022-10-16T02:58:02;15.90;96.60
26541;DHT22;14206;50.202;10.948;2022-10-16T03:00:29;15.90;96.60
26541;DHT22;14206;50.202;10.948;2022-10-16T03:02:56;15.90;96.60
26541;DHT22;14206;50.202;10.948;2022-10-16T03:05:22;15.90;96.60
26541;DHT22;14206;50.202;10.948;2022-10-16T03:07:49;15.90;96.60
26541;DHT22;14206;50.202;10.948;2022-10-16T03:10:17;15.90;96.60
26541;DHT22;14206;50.202;10.948;2022-10-16T03:12:44;15.90;96.60
26541;DHT22;14206;50.202;10.948;2022-10-16T03:15:11;15.90;96.60
26541;DHT22;14206;50.202;10.948;2022-10-16T03:17:39;15.90;96.60
26541;DHT22;14206;50.202;10.948;2022-10-16T03:20:06;15.90;96.60
26541;DHT22;14206;50.202;10.948;2022-10-16T03:22:34;15.90;96.60
26541;DHT22;14206;50.202;10.948;2022-10-16T03:25:00;15.80;96.60
26541;DHT22;14206;50.202;10.948;2022-10-16T03:27:27;15.80;96.60
26541;DHT22;14206;50.202;10.948;2022-10-16T03:29:55;15.70;96.60
26541;DHT22;14206;50.202;10.948;2022-10-16T03:32:22;15.70;96.60
26541;DHT22;14206;50.202;10.948;2022-10-16T03:34:51;15.70;96.60
26541;DHT22;14206;50.202;10.948;2022-10-16T03:37:20;15.80;96.60
26541;DHT22;14206;50.202;10.948;2022-10-16T03:39:47;15.80;96.60
26541;DHT22;14206;50.202;10.948;2022-10-16T03:42:14;15.80;96.60
26541;DHT22;14206;50.202;10.948;2022-10-16T03:44:41;15.90;96.60
26541;DHT22;14206;50.202;10.948;2022-10-16T03:47:08;15.90;96.60
26541;DHT22;14206;50.202;10.948;2022-10-16T03:49:35;15.90;96.60
26541;DHT22;14206;50.202;10.948;2022-10-16T03:52:02;15.90;96.60
26541;DHT22;14206;50.202;10.948;2022-10-16T03:54:29;15.90;96.60
26541;DHT22;14206;50.202;10.948;2022-10-16T03:56:56;16.00;96.60
26541;DHT22;14206;50.202;10.948;2022-10-16T03:59:23;16.00;96.60
26541;DHT22;14206;50.202;10.948;2022-10-16T04:01:50;16.00;96.60
26541;DHT22;14206;50.202;10.948;2022-10-16T04:04:17;16.00;96.60
26541;DHT22;14206;50.202;10.948;2022-10-16T04:06:44;16.10;96.60
26541;DHT22;14206;50.202;10.948;2022-10-16T04:09:11;16.10;96.60
26541;DHT22;14206;50.202;10.948;2022-10-16T04:11:38;16.10;96.60
26541;DHT22;14206;50.202;10.948;2022-10-16T04:14:05;16.10;96.60
26541;DHT22;14206;50.202;10.948;2022-10-16T04:16:32;16.10;96.60
26541;DHT22;14206;50.202;10.948;2022-10-16T04:18:59;16.10;96.60
26541;DHT22;14206;50.202;10.948;2022-10-16T04:21:26;16.20;96.60
26541;DHT22;14206;50.202;10.948;2022-10-16T04:23:52;16.20;96.60
26541;DHT22;14206;50.202;10.948;2022-10-16T04:26:20;16.20;96.60
26541;DHT22;14206;50.202;10.948;2022-10-16T04:28:46;16.10;96.60
26541;DHT22;14206;50.202;10.948;2022-10-16T04:31:27;16.10;96.60
26541;DHT22;14206;50.202;10.948;2022-10-16T04:33:53;16.00;96.60
26541;DHT22;14206;50.202;10.948;2022-10-16T04:36:20;16.00;96.60
26541;DHT22;14206;50.202;10.948;2022-10-16T04:38:52;16.00;96.60
26541;DHT22;14206;50.202;10.948;2022-10-16T04:41:19;16.00;96.60
26541;DHT22;14206;50.202;10.948;2022-10-16T04:43:45;16.00;96.60
26541;DHT22;14206;50.202;10.948;2022-10-16T04:46:12;16.10;96.60
26541;DHT22;14206;50.202;10.948;2022-10-16T04:48:39;16.10;96.60
26541;DHT22;14206;50.202;10.948;2022-10-16T04:51:06;16.10;96.60
26541;DHT22;14206;50.202;10.948;2022-10-16T04:53:33;16.20;96.60
26541;DHT22;14206;50.202;10.948;2022-10-16T04:56:04;16.20;96.60
26541;DHT22;14206;50.202;10.948;2022-10-16T04:58:31;16.20;96.60
26541;DHT22;14206;50.202;10.948;2022-10-16T05:00:58;16.20;96.60
26541;DHT22;14206;50.202;10.948;2022-10-16T05:03:24;16.20;96.60
26541;DHT22;14206;50.202;10.948;2022-10-16T05:05:51;16.20;96.60
26541;DHT22;14206;50.202;10.948;2022-10-16T05:08:18;16.20;96.60
26541;DHT22;14206;50.202;10.948;2022-10-16T05:10:52;16.20;96.60
26541;DHT22;14206;50.202;10.948;2022-10-16T05:13:20;16.20;96.60
26541;DHT22;14206;50.202;10.948;2022-10-16T05:15:47;16.20;96.60
26541;DHT22;14206;50.202;10.948;2022-10-16T05:18:15;16.20;96.60
26541;DHT22;14206;50.202;10.948;2022-10-16T05:20:42;16.10;96.60
26541;DHT22;14206;50.202;10.948;2022-10-16T05:23:09;16.10;96.60
26541;DHT22;14206;50.202;10.948;2022-10-16T05:25:58;16.10;96.60
26541;DHT22;14206;50.202;10.948;2022-10-16T05:28:26;16.20;96.60
26541;DHT22;14206;50.202;10.948;2022-10-16T05:30:53;16.20;96.60
26541;DHT22;14206;50.202;10.948;2022-10-16T05:33:21;16.20;96.60
26541;DHT22;14206;50.202;10.948;2022-10-16T05:35:49;16.10;96.60
26541;DHT22;14206;50.202;10.948;2022-10-16T05:38:17;16.10;96.60
26541;DHT22;14206;50.202;10.948;2022-10-16T05:40:50;16.10;96.60
26541;DHT22;14206;50.202;10.948;2022-10-16T05:43:18;16.10;96.60
26541;DHT22;14206;50.202;10.948;2022-10-16T05:46:03;16.10;96.60
26541;DHT22;14206;50.202;10.948;2022-10-16T05:48:30;16.10;96.60
26541;DHT22;14206;50.202;10.948;2022-10-16T05:51:09;16.10;96.60
26541;DHT22;14206;50.202;10.948;2022-10-16T05:53:37;16.10;96.60
26541;DHT22;14206;50.202;10.948;2022-10-16T05:56:06;16.00;96.60
26541;DHT22;14206;50.202;10.948;2022-10-16T05:58:37;16.00;96.60
26541;DHT22;14206;50.202;10.948;2022-10-16T06:01:10;16.00;96.60
26541;DHT22;14206;50.202;10.948;2022-10-16T06:03:37;16.00;96.60
26541;DHT22;14206;50.202;10.948;2022-10-16T06:08:47;16.00;96.60
26541;DHT22;14206;50.202;10.948;2022-10-16T06:11:19;16.00;96.60
26541;DHT22;14206;50.202;10.948;2022-10-16T06:13:54;16.00;96.60
26541;DHT22;14206;50.202;10.948;2022-10-16T06:16:24;16.00;96.60
26541;DHT22;14206;50.202;10.948;2022-10-16T06:18:52;16.10;96.60
26541;DHT22;14206;50.202;10.948;2022-10-16T06:21:24;16.20;96.60
26541;DHT22;14206;50.202;10.948;2022-10-16T06:23:52;16.20;96.60
26541;DHT22;14206;50.202;10.948;2022-10-16T06:26:21;16.30;96.60
26541;DHT22;14206;50.202;10.948;2022-10-16T06:28:49;16.30;96.60
26541;DHT22;14206;50.202;10.948;2022-10-16T06:31:17;16.40;96.60
26541;DHT22;14206;50.202;10.948;2022-10-16T06:33:45;16.40;96.60
26541;DHT22;14206;50.202;10.948;2022-10-16T06:36:25;16.40;96.60
26541;DHT22;14206;50.202;10.948;2022-10-16T06:38:52;16.40;96.60
26541;DHT22;14206;50.202;10.948;2022-10-16T06:41:21;16.40;96.60
26541;DHT22;14206;50.202;10.948;2022-10-16T06:43:48;16.40;96.60
26541;DHT22;14206;50.202;10.948;2022-10-16T06:46:24;16.40;96.60
26541;DHT22;14206;50.202;10.948;2022-10-16T06:48:51;16.50;96.60
26541;DHT22;14206;50.202;10.948;2022-10-16T06:51:19;16.50;96.60
26541;DHT22;14206;50.202;10.948;2022-10-16T06:53:51;16.60;96.60
26541;DHT22;14206;50.202;10.948;2022-10-16T06:56:41;16.60;96.60
26541;DHT22;14206;50.202;10.948;2022-10-16T06:59:14;16.60;96.60
26541;DHT22;14206;50.202;10.948;2022-10-16T07:01:41;16.70;96.60
26541;DHT22;14206;50.202;10.948;2022-10-16T07:04:07;16.80;96.60
26541;DHT22;14206;50.202;10.948;2022-10-16T07:06:34;16.80;96.60
26541;DHT22;14206;50.202;10.948;2022-10-16T07:09:04;16.90;96.60
26541;DHT22;14206;50.202;10.948;2022-10-16T07:11:31;17.00;96.60
26541;DHT22;14206;50.202;10.948;2022-10-16T07:13:58;17.00;96.60
26541;DHT22;14206;50.202;10.948;2022-10-16T07:16:27;17.10;96.60
26541;DHT22;14206;50.202;10.948;2022-10-16T07:18:56;17.10;96.60
26541;DHT22;14206;50.202;10.948;2022-10-16T07:21:34;17.10;96.60
26541;DHT22;14206;50.202;10.948;2022-10-16T07:24:12;17.10;96.60
26541;DHT22;14206;50.202;10.948;2022-10-16T07:26:41;17.10;96.60
26541;DHT22;14206;50.202;10.948;2022-10-16T07:29:14;17.20;96.60
26541;DHT22;14206;50.202;10.948;2022-10-16T07:31:41;17.40;96.60
26541;DHT22;14206;50.202;10.948;2022-10-16T07:34:09;17.50;96.60
26541;DHT22;14206;50.202;10.948;2022-10-16T07:36:37;18.00;96.60
26541;DHT22;14206;50.202;10.948;2022-10-16T07:39:08;18.00;96.60
26541;DHT22;14206;50.202;10.948;2022-10-16T07:41:35;18.10;96.60
26541;DHT22;14206;50.202;10.948;2022-10-16T07:44:03;18.10;96.60
26541;DHT22;14206;50.202;10.948;2022-10-16T07:46:30;18.10;96.60
26541;DHT22;14206;50.202;10.948;2022-10-16T07:49:00;18.30;96.60
26541;DHT22;14206;50.202;10.948;2022-10-16T07:51:27;18.50;96.60
26541;DHT22;14206;50.202;10.948;2022-10-16T07:53:54;18.60;96.60
26541;DHT22;14206;50.202;10.948;2022-10-16T07:56:22;18.70;96.60
26541;DHT22;14206;50.202;10.948;2022-10-16T07:58:50;18.90;96.60
26541;DHT22;14206;50.202;10.948;2022-10-16T08:01:17;19.20;96.20
26541;DHT22;14206;50.202;10.948;2022-10-16T08:03:49;19.60;95.70
26541;DHT22;14206;50.202;10.948;2022-10-16T08:06:18;20.40;95.90
26541;DHT22;14206;50.202;10.948;2022-10-16T08:08:51;21.40;92.70
26541;DHT22;14206;50.202;10.948;2022-10-16T08:11:18;22.20;89.90
26541;DHT22;14206;50.202;10.948;2022-10-16T08:13:45;22.50;87.70
26541;DHT22;14206;50.202;10.948;2022-10-16T08:16:11;22.70;85.00
26541;DHT22;14206;50.202;10.948;2022-10-16T08:18:39;22.80;84.90
26541;DHT22;14206;50.202;10.948;2022-10-16T08:21:15;22.70;84.60
26541;DHT22;14206;50.202;10.948;2022-10-16T08:23:47;22.40;84.70
26541;DHT22;14206;50.202;10.948;2022-10-16T08:26:22;22.10;84.70
26541;DHT22;14206;50.202;10.948;2022-10-16T08:28:50;21.70;85.70
26541;DHT22;14206;50.202;10.948;2022-10-16T08:31:18;21.50;87.50
26541;DHT22;14206;50.202;10.948;2022-10-16T08:33:45;21.30;88.00
26541;DHT22;14206;50.202;10.948;2022-10-16T08:36:14;21.00;88.20
26541;DHT22;14206;50.202;10.948;2022-10-16T08:38:42;20.70;88.90
26541;DHT22;14206;50.202;10.948;2022-10-16T08:46:36;19.80;91.70
26541;DHT22;14206;50.202;10.948;2022-10-16T08:49:09;19.50;92.80
26541;DHT22;14206;50.202;10.948;2022-10-16T08:51:38;19.40;94.50
26541;DHT22;14206;50.202;10.948;2022-10-16T08:54:34;19.30;94.30
26541;DHT22;14206;50.202;10.948;2022-10-16T08:57:24;19.30;95.20
26541;DHT22;14206;50.202;10.948;2022-10-16T08:59:51;19.30;94.60
26541;DHT22;14206;50.202;10.948;2022-10-16T09:02:35;19.30;95.00
26541;DHT22;14206;50.202;10.948;2022-10-16T09:13:51;19.50;94.60
26541;DHT22;14206;50.202;10.948;2022-10-16T09:16:55;19.40;94.20
26541;DHT22;14206;50.202;10.948;2022-10-16T09:19:26;19.30;94.50
26541;DHT22;14206;50.202;10.948;2022-10-16T09:21:56;19.30;94.80
26541;DHT22;14206;50.202;10.948;2022-10-16T09:24:26;19.40;95.40
26541;DHT22;14206;50.202;10.948;2022-10-16T09:26:55;19.40;95.00
26541;DHT22;14206;50.202;10.948;2022-10-16T09:29:24;19.40;94.50
26541;DHT22;14206;50.202;10.948;2022-10-16T09:31:53;19.50;94.90
26541;DHT22;14206;50.202;10.948;2022-10-16T09:34:31;19.70;94.20
26541;DHT22;14206;50.202;10.948;2022-10-16T09:37:01;19.90;93.90
26541;DHT22;14206;50.202;10.948;2022-10-16T09:39:29;20.10;93.10
26541;DHT22;14206;50.202;10.948;2022-10-16T09:41:56;20.40;92.40
26541;DHT22;14206;50.202;10.948;2022-10-16T09:44:29;20.80;91.00
26541;DHT22;14206;50.202;10.948;2022-10-16T09:47:27;21.30;90.90
26541;DHT22;14206;50.202;10.948;2022-10-16T09:50:00;21.80;88.20
26541;DHT22;14206;50.202;10.948;2022-10-16T09:52:32;22.10;86.40
26541;DHT22;14206;50.202;10.948;2022-10-16T09:55:02;22.10;85.80
26541;DHT22;14206;50.202;10.948;2022-10-16T09:57:29;22.00;85.80
26541;DHT22;14206;50.202;10.948;2022-10-16T09:59:58;22.00;86.30
26541;DHT22;14206;50.202;10.948;2022-10-16T10:02:39;22.00;85.90
26541;DHT22;14206;50.202;10.948;2022-10-16T10:05:21;21.90;86.30
26541;DHT22;14206;50.202;10.948;2022-10-16T10:07:55;21.70;86.00
26541;DHT22;14206;50.202;10.948;2022-10-16T10:10:31;21.70;86.60
26541;DHT22;14206;50.202;10.948;2022-10-16T10:13:21;21.80;87.00
26541;DHT22;14206;50.202;10.948;2022-10-16T10:15:50;21.80;87.20
26541;DHT22;14206;50.202;10.948;2022-10-16T10:18:22;22.10;86.40
26541;DHT22;14206;50.202;10.948;2022-10-16T10:21:01;22.50;85.90
26541;DHT22;14206;50.202;10.948;2022-10-16T10:23:29;22.70;84.70
26541;DHT22;14206;50.202;10.948;2022-10-16T10:26:12;22.90;83.40
26541;DHT22;14206;50.202;10.948;2022-10-16T10:29:04;22.90;83.70
26541;DHT22;14206;50.202;10.948;2022-10-16T10:43:30;23.60;80.60
26541;DHT22;14206;50.202;10.948;2022-10-16T10:46:04;23.20;81.60
26541;DHT22;14206;50.202;10.948;2022-10-16T10:48:50;22.80;83.20
26541;DHT22;14206;50.202;10.948;2022-10-16T10:51:28;22.50;83.70
26541;DHT22;14206;50.202;10.948;2022-10-16T11:01:58;21.20;88.30
26541;DHT22;14206;50.202;10.948;2022-10-16T11:07:04;20.80;90.90
26541;DHT22;14206;50.202;10.948;2022-10-16T11:09:44;20.50;90.50
26541;DHT22;14206;50.202;10.948;2022-10-16T11:12:29;20.20;92.20
26541;DHT22;14206;50.202;10.948;2022-10-16T11:17:46;19.60;94.30
26541;DHT22;14206;50.202;10.948;2022-10-16T11:20:37;19.40;96.20
26541;DHT22;14206;50.202;10.948;2022-10-16T11:26:14;19.20;96.60
26541;DHT22;14206;50.202;10.948;2022-10-16T11:28:46;19.00;96.60
26541;DHT22;14206;50.202;10.948;2022-10-16T11:31:24;18.80;96.60
26541;DHT22;14206;50.202;10.948;2022-10-16T11:36:53;18.70;96.60
26541;DHT22;14206;50.202;10.948;2022-10-16T11:39:31;18.90;96.60
26541;DHT22;14206;50.202;10.948;2022-10-16T11:48:18;19.20;96.60
26541;DHT22;14206;50.202;10.948;2022-10-16T11:51:08;19.20;96.60
26541;DHT22;14206;50.202;10.948;2022-10-16T11:56:18;19.40;96.60
26541;DHT22;14206;50.202;10.948;2022-10-16T12:06:58;19.70;96.60
26541;DHT22;14206;50.202;10.948;2022-10-16T12:09:37;19.80;96.60
26541;DHT22;14206;50.202;10.948;2022-10-16T12:12:23;19.90;96.60
26541;DHT22;14206;50.202;10.948;2022-10-16T12:15:01;20.00;96.60
26541;DHT22;14206;50.202;10.948;2022-10-16T12:17:47;20.10;96.60
26541;DHT22;14206;50.202;10.948;2022-10-16T12:22:56;20.20;96.60
26541;DHT22;14206;50.202;10.948;2022-10-16T12:25:31;20.30;96.60
26541;DHT22;14206;50.202;10.948;2022-10-16T12:28:04;20.50;96.60
26541;DHT22;14206;50.202;10.948;2022-10-16T12:30:34;20.60;96.60
26541;DHT22;14206;50.202;10.948;2022-10-16T12:33:06;20.40;95.40
26541;DHT22;14206;50.202;10.948;2022-10-16T12:35:46;20.30;95.80
26541;DHT22;14206;50.202;10.948;2022-10-16T12:38:27;20.30;96.00
26541;DHT22;14206;50.202;10.948;2022-10-16T12:43:44;20.20;95.60
26541;DHT22;14206;50.202;10.948;2022-10-16T12:48:43;20.30;94.80
26541;DHT22;14206;50.202;10.948;2022-10-16T13:07:59;20.50;94.70
26541;DHT22;14206;50.202;10.948;2022-10-16T13:10:41;20.60;94.90
26541;DHT22;14206;50.202;10.948;2022-10-16T13:13:45;20.60;95.50
26541;DHT22;14206;50.202;10.948;2022-10-16T13:16:24;20.60;94.70
26541;DHT22;14206;50.202;10.948;2022-10-16T13:19:19;20.60;93.50
26541;DHT22;14206;50.202;10.948;2022-10-16T13:22:06;20.60;94.20
26541;DHT22;14206;50.202;10.948;2022-10-16T13:25:01;20.70;94.00
26541;DHT22;14206;50.202;10.948;2022-10-16T13:27:43;20.90;92.90
26541;DHT22;14206;50.202;10.948;2022-10-16T13:30:21;21.20;90.60
26541;DHT22;14206;50.202;10.948;2022-10-16T13:33:19;21.50;91.30
26541;DHT22;14206;50.202;10.948;2022-10-16T13:35:49;21.60;90.00
26541;DHT22;14206;50.202;10.948;2022-10-16T13:38:22;21.80;88.20
26541;DHT22;14206;50.202;10.948;2022-10-16T13:40:57;21.80;88.80
26541;DHT22;14206;50.202;10.948;2022-10-16T13:43:50;21.90;89.10
26541;DHT22;14206;50.202;10.948;2022-10-16T13:46:20;21.90;89.00
26541;DHT22;14206;50.202;10.948;2022-10-16T13:49:01;21.80;88.40
26541;DHT22;14206;50.202;10.948;2022-10-16T13:51:28;22.00;89.20
26541;DHT22;14206;50.202;10.948;2022-10-16T13:53:56;21.80;89.50
26541;DHT22;14206;50.202;10.948;2022-10-16T13:56:29;21.60;90.10
26541;DHT22;14206;50.202;10.948;2022-10-16T14:01:35;21.20;90.40
26541;DHT22;14206;50.202;10.948;2022-10-16T14:04:11;20.90;91.30
26541;DHT22;14206;50.202;10.948;2022-10-16T14:06:42;20.90;92.30
26541;DHT22;14206;50.202;10.948;2022-10-16T14:09:30;20.80;91.90
26541;DHT22;14206;50.202;10.948;2022-10-16T14:12:03;20.70;92.50
26541;DHT22;14206;50.202;10.948;2022-10-16T14:14:42;20.60;92.60
26541;DHT22;14206;50.202;10.948;2022-10-16T14:17:24;20.60;92.90
26541;DHT22;14206;50.202;10.948;2022-10-16T14:19:55;20.60;93.10
26541;DHT22;14206;50.202;10.948;2022-10-16T14:25:02;20.60;92.70
26541;DHT22;14206;50.202;10.948;2022-10-16T14:27:34;20.50;92.60
26541;DHT22;14206;50.202;10.948;2022-10-16T14:30:15;20.50;92.70
26541;DHT22;14206;50.202;10.948;2022-10-16T14:33:06;20.40;92.80
26541;DHT22;14206;50.202;10.948;2022-10-16T14:35:44;20.30;93.30
26541;DHT22;14206;50.202;10.948;2022-10-16T14:38:20;20.20;93.90
26541;DHT22;14206;50.202;10.948;2022-10-16T14:40:48;20.10;93.90
26541;DHT22;14206;50.202;10.948;2022-10-16T14:43:36;20.00;94.70
26541;DHT22;14206;50.202;10.948;2022-10-16T14:46:09;20.00;94.60
26541;DHT22;14206;50.202;10.948;2022-10-16T14:48:46;20.00;94.70
26541;DHT22;14206;50.202;10.948;2022-10-16T14:51:15;20.00;94.90
26541;DHT22;14206;50.202;10.948;2022-10-16T14:53:42;19.90;95.10
26541;DHT22;14206;50.202;10.948;2022-10-16T14:56:25;19.80;95.00
26541;DHT22;14206;50.202;10.948;2022-10-16T14:58:55;19.80;95.40
26541;DHT22;14206;50.202;10.948;2022-10-16T15:01:22;19.80;95.70
26541;DHT22;14206;50.202;10.948;2022-10-16T15:03:49;19.80;96.10
26541;DHT22;14206;50.202;10.948;2022-10-16T15:06:18;19.80;95.70
26541;DHT22;14206;50.202;10.948;2022-10-16T15:08:45;19.80;96.10
26541;DHT22;14206;50.202;10.948;2022-10-16T15:11:15;19.80;95.90
26541;DHT22;14206;50.202;10.948;2022-10-16T15:13:42;19.80;95.90
26541;DHT22;14206;50.202;10.948;2022-10-16T15:16:14;19.70;96.20
26541;DHT22;14206;50.202;10.948;2022-10-16T15:18:42;19.70;96.50
26541;DHT22;14206;50.202;10.948;2022-10-16T15:21:25;19.60;96.20
26541;DHT22;14206;50.202;10.948;2022-10-16T15:23:52;19.60;96.20
26541;DHT22;14206;50.202;10.948;2022-10-16T15:26:19;19.60;96.30
26541;DHT22;14206;50.202;10.948;2022-10-16T15:28:46;19.50;96.40
26541;DHT22;14206;50.202;10.948;2022-10-16T15:31:13;19.50;96.50
26541;DHT22;14206;50.202;10.948;2022-10-16T15:33:40;19.50;96.60
26541;DHT22;14206;50.202;10.948;2022-10-16T15:36:07;19.40;96.60
26541;DHT22;14206;50.202;10.948;2022-10-16T15:38:34;19.40;96.60
26541;DHT22;14206;50.202;10.948;2022-10-16T15:41:01;19.40;96.60
26541;DHT22;14206;50.202;10.948;2022-10-16T15:43:28;19.40;96.60
26541;DHT22;14206;50.202;10.948;2022-10-16T15:46:03;19.40;96.60
26541;DHT22;14206;50.202;10.948;2022-10-16T15:48:32;19.40;96.60
26541;DHT22;14206;50.202;10.948;2022-10-16T15:51:00;19.40;96.60
26541;DHT22;14206;50.202;10.948;2022-10-16T15:53:29;19.40;96.60
26541;DHT22;14206;50.202;10.948;2022-10-16T15:55:55;19.40;96.60
26541;DHT22;14206;50.202;10.948;2022-10-16T15:58:22;19.40;96.60
26541;DHT22;14206;50.202;10.948;2022-10-16T16:00:55;19.40;96.60
26541;DHT22;14206;50.202;10.948;2022-10-16T16:03:23;19.40;96.60
26541;DHT22;14206;50.202;10.948;2022-10-16T16:05:49;19.40;96.60
26541;DHT22;14206;50.202;10.948;2022-10-16T16:08:17;19.30;96.60
26541;DHT22;14206;50.202;10.948;2022-10-16T16:10:43;19.30;96.60
26541;DHT22;14206;50.202;10.948;2022-10-16T16:13:14;19.20;96.60
26541;DHT22;14206;50.202;10.948;2022-10-16T16:15:40;19.20;96.60
26541;DHT22;14206;50.202;10.948;2022-10-16T16:18:07;19.10;96.60
26541;DHT22;14206;50.202;10.948;2022-10-16T16:20:36;19.10;96.60
26541;DHT22;14206;50.202;10.948;2022-10-16T16:23:03;19.00;96.60
26541;DHT22;14206;50.202;10.948;2022-10-16T16:25:30;19.00;96.60
26541;DHT22;14206;50.202;10.948;2022-10-16T16:27:57;19.00;96.60
26541;DHT22;14206;50.202;10.948;2022-10-16T16:30:24;19.00;96.60
26541;DHT22;14206;50.202;10.948;2022-10-16T16:32:54;18.90;96.60
26541;DHT22;14206;50.202;10.948;2022-10-16T16:35:21;18.90;96.60
26541;DHT22;14206;50.202;10.948;2022-10-16T16:37:47;18.80;96.60
26541;DHT22;14206;50.202;10.948;2022-10-16T16:40:14;18.70;96.60
26541;DHT22;14206;50.202;10.948;2022-10-16T16:42:41;18.70;96.60
26541;DHT22;14206;50.202;10.948;2022-10-16T16:45:09;18.70;96.60
26541;DHT22;14206;50.202;10.948;2022-10-16T16:47:35;18.70;96.60
26541;DHT22;14206;50.202;10.948;2022-10-16T16:50:02;18.60;96.60
26541;DHT22;14206;50.202;10.948;2022-10-16T16:52:38;18.60;96.60
26541;DHT22;14206;50.202;10.948;2022-10-16T16:55:04;18.60;96.60
26541;DHT22;14206;50.202;10.948;2022-10-16T16:57:32;18.60;96.60
26541;DHT22;14206;50.202;10.948;2022-10-16T16:59:58;18.60;96.60
26541;DHT22;14206;50.202;10.948;2022-10-16T17:02:25;18.60;96.60
26541;DHT22;14206;50.202;10.948;2022-10-16T17:04:52;18.50;96.60
26541;DHT22;14206;50.202;10.948;2022-10-16T17:07:32;18.50;96.60
26541;DHT22;14206;50.202;10.948;2022-10-16T17:10:01;18.50;96.60
26541;DHT22;14206;50.202;10.948;2022-10-16T17:12:29;18.50;96.60
26541;DHT22;14206;50.202;10.948;2022-10-16T17:15:02;18.40;96.60
26541;DHT22;14206;50.202;10.948;2022-10-16T17:17:29;18.40;96.60
26541;DHT22;14206;50.202;10.948;2022-10-16T17:19:56;18.30;96.60
26541;DHT22;14206;50.202;10.948;2022-10-16T17:22:23;18.30;96.60
26541;DHT22;14206;50.202;10.948;2022-10-16T17:24:51;18.30;96.60
26541;DHT22;14206;50.202;10.948;2022-10-16T17:27:18;18.30;96.60
26541;DHT22;14206;50.202;10.948;2022-10-16T17:29:49;18.30;96.60
26541;DHT22;14206;50.202;10.948;2022-10-16T17:32:15;18.20;96.60
26541;DHT22;14206;50.202;10.948;2022-10-16T17:34:42;18.20;96.60
26541;DHT22;14206;50.202;10.948;2022-10-16T17:37:09;18.10;96.60
26541;DHT22;14206;50.202;10.948;2022-10-16T17:39:42;18.10;96.60
26541;DHT22;14206;50.202;10.948;2022-10-16T17:42:09;18.10;96.60
26541;DHT22;14206;50.202;10.948;2022-10-16T17:44:36;18.10;96.60
26541;DHT22;14206;50.202;10.948;2022-10-16T17:47:03;18.00;96.60
26541;DHT22;14206;50.202;10.948;2022-10-16T17:49:31;18.00;96.60